Overview Statistics Trail Chart Weather Telemetry Raw packets
 

This is the latest recevied weather packets stored in our database for station/object N0NB. If no packets are shown the sender has not sent any weather packets the latest 10 day(s).

<< 1 2 3 4 5 6 >>
Time Temp. Humidity Pressure Rain* Wind** Luminosity Snow
1788624916 32.22° C 60% 1013.5 hPa 0 mm - 593 W/m² -
1788624316 32.22° C 60% 1013.5 hPa 0 mm - 588 W/m² -
1788623716 31.67° C 62% 1013.4 hPa 0 mm - 566 W/m² -
1788623116 31.67° C 63% 1013.3 hPa 0 mm - 545 W/m² -
1788622516 31.11° C 63% 1013.3 hPa 0 mm - 524 W/m² -
1788621916 31.11° C 62% 1013.1 hPa 0 mm - 499 W/m² -
1788621316 30.56° C 65% 1013.1 hPa 0 mm - 468 W/m² -
1788620716 30.56° C 63% 1012.8 hPa 0 mm - 406 W/m² -
1788620116 30° C 65% 1012.7 hPa 0 mm - 425 W/m² -
1788619516 29.44° C 68% 1012.7 hPa 0 mm - 384 W/m² -
1788618916 28.89° C 70% 1012.5 hPa 0 mm - 318 W/m² -
1788618316 28.33° C 72% 1012.6 hPa 0 mm - 311 W/m² -
1788617716 27.78° C 75% 1012.7 hPa 0 mm - 299 W/m² -
1788617116 26.67° C 78% 1012.5 hPa 0 mm - 247 W/m² -
1788616515 26.11° C 80% 1012.5 hPa 0 mm - 239 W/m² -
1788615916 26.11° C 80% 1012.5 hPa 0 mm - 139 W/m² -
1788615315 26.11° C 79% 1012.7 hPa 0 mm - 97 W/m² -
1788614715 25.56° C 78% 1012.6 hPa 0 mm - 83 W/m² -
1788614115 25.56° C 79% 1012.6 hPa 0 mm - 86 W/m² -
1788613515 25° C 80% 1012.4 hPa 0 mm - 96 W/m² -
1788612915 24.44° C 83% 1012.2 hPa 0 mm - 96 W/m² -
1788612315 23.89° C 85% 1012.1 hPa 0 mm - 76 W/m² -
1788611715 23.33° C 85% 1011.9 hPa 0 mm - 41 W/m² -
1788611115 23.33° C 84% 1011.8 hPa 0 mm - 30 W/m² -
1788610515 23.89° C 82% 1011.9 hPa 0 mm - 19 W/m² -

* Rain latest hour (hover to see other rain measurements)
** Current wind speed in m/s (hover to see current wind gust speed)